Time,TemperatureF,DewpointF,PressureIn,WindDirection,WindDirectionDegrees,WindSpeedMPH,WindSpeedGustMPH,Humidity,HourlyPrecipIn,Conditions,Clouds,dailyrainin,SoftwareType,DateUTC
2013-02-20 00:01:00,39.0,38.6,29.51,West,270,0.0,0.7,98,0.00,,,0.11,fowsr,2013-02-20 05:01:00,
2013-02-20 00:06:00,39.4,38.8,29.51,West,270,0.0,0.0,97,0.00,,,0.11,fowsr,2013-02-20 05:06:00,
2013-02-20 00:11:00,39.4,39.0,29.52,SE,135,0.0,0.0,98,0.00,,,0.11,fowsr,2013-02-20 05:11:00,
2013-02-20 00:16:00,39.4,39.0,29.52,SW,225,0.0,0.7,98,0.00,,,0.11,fowsr,2013-02-20 05:16:00,
2013-02-20 00:21:00,39.4,39.0,29.52,SW,225,0.0,0.0,98,0.00,,,0.11,fowsr,2013-02-20 05:21:00,
2013-02-20 00:26:00,39.2,38.8,29.52,South,180,0.0,0.0,98,0.00,,,0.11,fowsr,2013-02-20 05:26:00,
2013-02-20 00:31:00,39.0,38.8,29.52,SW,225,0.0,0.0,99,0.00,,,0.11,fowsr,2013-02-20 05:31:00,
2013-02-20 00:36:00,38.7,38.5,29.52,SW,225,0.0,0.0,99,0.00,,,0.11,fowsr,2013-02-20 05:36:00,
2013-02-20 00:41:00,38.5,38.3,29.52,SW,225,0.0,0.0,99,0.00,,,0.11,fowsr,2013-02-20 05:41:00,
2013-02-20 00:46:00,38.1,37.9,29.52,SW,225,0.0,0.0,99,0.00,,,0.11,fowsr,2013-02-20 05:46:00,
2013-02-20 00:51:00,37.8,37.6,29.53,SE,135,0.0,0.0,99,0.00,,,0.11,fowsr,2013-02-20 05:51:00,
2013-02-20 00:56:00,37.8,37.6,29.53,West,270,0.0,0.0,99,0.00,,,0.11,fowsr,2013-02-20 05:56:00,
2013-02-20 01:01:00,37.8,37.6,29.53,SE,135,0.0,0.0,99,0.00,,,0.11,fowsr,2013-02-20 06:01:00,
2013-02-20 01:06:00,37.6,37.4,29.53,SE,135,0.0,0.0,99,0.00,,,0.11,fowsr,2013-02-20 06:06:00,
2013-02-20 01:11:00,37.6,37.4,29.54,NW,315,0.0,0.0,99,0.00,,,0.11,fowsr,2013-02-20 06:11:00,
2013-02-20 01:16:00,37.4,37.2,29.54,NW,315,0.0,0.0,99,0.00,,,0.11,fowsr,2013-02-20 06:16:00,
2013-02-20 01:21:00,37.2,36.1,29.54,NNW,337,0.0,0.7,94,0.00,,,0.11,fowsr,2013-02-20 06:21:00,
2013-02-20 01:26:00,37.2,36.1,29.55,West,270,0.0,0.7,94,0.00,,,0.11,fowsr,2013-02-20 06:26:00,
2013-02-20 01:31:00,37.2,36.1,29.55,West,270,0.0,0.7,94,0.00,,,0.11,fowsr,2013-02-20 06:31:00,
2013-02-20 01:36:00,37.4,36.8,29.55,NW,315,0.0,0.7,97,0.00,,,0.11,fowsr,2013-02-20 06:36:00,
2013-02-20 01:41:00,37.2,35.7,29.55,SW,225,0.0,0.7,92,0.00,,,0.11,fowsr,2013-02-20 06:41:00,
2013-02-20 01:46:00,37.2,35.5,29.55,West,270,0.0,0.7,91,0.00,,,0.11,fowsr,2013-02-20 06:46:00,
2013-02-20 01:51:00,37.2,35.1,29.55,NW,315,0.0,0.0,89,0.00,,,0.11,fowsr,2013-02-20 06:51:00,
2013-02-20 01:56:00,37.2,34.9,29.55,NW,315,0.7,1.6,88,0.00,,,0.11,fowsr,2013-02-20 06:56:00,
2013-02-20 02:01:00,37.2,34.0,29.56,West,270,0.0,0.0,84,0.00,,,0.11,fowsr,2013-02-20 07:01:00,
2013-02-20 02:06:00,37.0,33.4,29.56,West,270,0.0,0.7,82,0.00,,,0.11,fowsr,2013-02-20 07:06:00,
2013-02-20 02:11:00,36.9,32.8,29.56,West,270,0.0,0.7,80,0.00,,,0.11,fowsr,2013-02-20 07:11:00,
2013-02-20 02:16:00,36.9,32.4,29.56,NW,315,0.0,0.7,78,0.00,,,0.11,fowsr,2013-02-20 07:16:00,
2013-02-20 02:21:00,36.7,32.0,29.56,South,180,0.0,0.0,77,0.00,,,0.11,fowsr,2013-02-20 07:21:00,
2013-02-20 02:26:00,36.5,31.6,29.55,NW,315,0.0,0.0,76,0.00,,,0.11,fowsr,2013-02-20 07:26:00,
2013-02-20 02:31:00,36.1,31.0,29.56,NW,315,0.0,0.0,75,0.00,,,0.11,fowsr,2013-02-20 07:31:00,
2013-02-20 02:36:00,35.8,30.6,29.56,NW,315,0.0,0.0,75,0.00,,,0.11,fowsr,2013-02-20 07:36:00,
2013-02-20 02:41:00,35.6,30.5,29.56,East,90,0.0,0.7,75,0.00,,,0.11,fowsr,2013-02-20 07:41:00,
2013-02-20 02:46:00,35.2,30.3,29.55,East,90,0.0,0.0,76,0.00,,,0.11,fowsr,2013-02-20 07:46:00,
2013-02-20 02:51:00,34.9,30.0,29.55,East,90,0.0,0.0,76,0.00,,,0.11,fowsr,2013-02-20 07:51:00,
2013-02-20 02:56:00,34.5,29.7,29.55,East,90,0.0,0.0,76,0.00,,,0.11,fowsr,2013-02-20 07:56:00,
2013-02-20 03:01:00,34.3,29.3,29.55,East,90,0.0,0.0,75,0.00,,,0.11,fowsr,2013-02-20 08:01:00,
2013-02-20 03:06:00,34.2,29.1,29.55,SW,225,0.0,0.0,75,0.00,,,0.11,fowsr,2013-02-20 08:06:00,
2013-02-20 03:11:00,34.0,28.9,29.55,South,180,0.0,0.7,75,0.00,,,0.11,fowsr,2013-02-20 08:11:00,
2013-02-20 03:16:00,34.0,28.7,29.55,SW,225,0.0,0.0,74,0.00,,,0.11,fowsr,2013-02-20 08:16:00,
2013-02-20 03:21:00,34.2,28.6,29.55,SW,225,0.0,0.7,73,0.00,,,0.11,fowsr,2013-02-20 08:21:00,
2013-02-20 03:26:00,34.2,28.4,29.55,SW,225,0.7,1.6,72,0.00,,,0.11,fowsr,2013-02-20 08:26:00,
2013-02-20 03:31:00,34.3,28.3,29.55,North,0,0.0,2.2,71,0.00,,,0.11,fowsr,2013-02-20 08:31:00,
2013-02-20 03:36:00,34.3,28.3,29.55,North,0,0.0,2.2,71,0.00,,,0.11,fowsr,2013-02-20 08:36:00,
2013-02-20 03:41:00,34.5,28.0,29.55,NW,315,0.0,0.7,69,0.00,,,0.11,fowsr,2013-02-20 08:41:00,
2013-02-20 03:46:00,34.5,28.0,29.55,East,90,0.0,0.0,69,0.00,,,0.11,fowsr,2013-02-20 08:46:00,
2013-02-20 03:51:00,34.3,27.8,29.55,NW,315,0.0,0.0,69,0.00,,,0.11,fowsr,2013-02-20 08:51:00,
2013-02-20 03:56:00,34.3,27.6,29.55,North,0,0.0,0.0,68,0.00,,,0.11,fowsr,2013-02-20 08:56:00,
2013-02-20 04:01:00,34.3,27.3,29.56,NW,315,0.0,0.0,67,0.00,,,0.11,fowsr,2013-02-20 09:01:00,
2013-02-20 04:06:00,34.3,27.0,29.56,West,270,0.0,0.0,66,0.00,,,0.11,fowsr,2013-02-20 09:06:00,
2013-02-20 04:11:00,34.2,26.9,29.57,West,270,0.0,0.7,66,0.00,,,0.11,fowsr,2013-02-20 09:11:00,
2013-02-20 04:16:00,34.2,26.6,29.57,West,270,0.0,0.7,65,0.00,,,0.11,fowsr,2013-02-20 09:16:00,
2013-02-20 04:21:00,34.3,26.3,29.57,West,270,0.0,0.7,63,0.00,,,0.11,fowsr,2013-02-20 09:21:00,
2013-02-20 04:26:00,34.7,26.3,29.57,NW,315,0.0,0.7,62,0.00,,,0.11,fowsr,2013-02-20 09:26:00,
2013-02-20 04:31:00,34.9,26.2,29.58,West,270,0.0,0.7,61,0.00,,,0.11,fowsr,2013-02-20 09:31:00,
2013-02-20 04:36:00,34.9,26.2,29.58,West,270,0.0,0.7,61,0.00,,,0.11,fowsr,2013-02-20 09:36:00,
2013-02-20 04:41:00,34.9,26.2,29.58,West,270,0.0,0.0,61,0.00,,,0.11,fowsr,2013-02-20 09:41:00,
2013-02-20 04:46:00,34.7,26.0,29.58,SE,135,0.0,0.0,61,0.00,,,0.11,fowsr,2013-02-20 09:46:00,
2013-02-20 04:51:00,34.5,25.6,29.57,NW,315,0.0,0.7,60,0.00,,,0.11,fowsr,2013-02-20 09:51:00,
2013-02-20 04:56:00,34.5,25.6,29.58,East,90,0.0,0.0,60,0.00,,,0.11,fowsr,2013-02-20 09:56:00,
2013-02-20 05:01:00,34.5,25.6,29.59,WNW,292,0.0,0.0,60,0.00,,,0.11,fowsr,2013-02-20 10:01:00,
2013-02-20 05:06:00,34.5,25.6,29.59,WNW,292,0.0,0.0,60,0.00,,,0.11,fowsr,2013-02-20 10:06:00,
2013-02-20 05:11:00,34.3,25.1,29.58,NW,315,0.0,0.0,59,0.00,,,0.11,fowsr,2013-02-20 10:11:00,
2013-02-20 05:16:00,34.2,25.0,29.59,West,270,0.0,0.0,59,0.00,,,0.11,fowsr,2013-02-20 10:16:00,
2013-02-20 05:21:00,34.2,25.0,29.59,West,270,0.0,0.0,59,0.00,,,0.11,fowsr,2013-02-20 10:21:00,
2013-02-20 05:26:00,34.0,24.8,29.59,West,270,0.0,0.7,59,0.00,,,0.11,fowsr,2013-02-20 10:26:00,
2013-02-20 05:31:00,33.8,24.6,29.59,SW,225,0.0,0.7,59,0.00,,,0.11,fowsr,2013-02-20 10:31:00,
2013-02-20 05:36:00,33.6,24.8,29.60,West,270,0.0,0.0,60,0.00,,,0.11,fowsr,2013-02-20 10:36:00,
2013-02-20 05:41:00,33.4,24.6,29.60,West,270,0.0,0.0,60,0.00,,,0.11,fowsr,2013-02-20 10:41:00,
2013-02-20 05:46:00,33.3,24.4,29.60,West,270,0.0,0.0,60,0.00,,,0.11,fowsr,2013-02-20 10:46:00,
2013-02-20 05:51:00,33.1,24.5,29.60,West,270,0.0,0.0,61,0.00,,,0.11,fowsr,2013-02-20 10:51:00,
2013-02-20 05:56:00,32.9,24.4,29.61,West,270,0.0,0.0,61,0.00,,,0.11,fowsr,2013-02-20 10:56:00,
2013-02-20 06:01:00,32.7,24.2,29.61,West,270,0.0,0.0,61,0.00,,,0.11,fowsr,2013-02-20 11:01:00,
2013-02-20 06:06:00,32.5,24.0,29.61,West,270,0.0,0.0,61,0.00,,,0.11,fowsr,2013-02-20 11:06:00,
2013-02-20 06:11:00,32.2,23.7,29.60,West,270,0.0,0.0,61,0.00,,,0.11,fowsr,2013-02-20 11:11:00,
2013-02-20 06:16:00,32.0,23.8,29.60,West,270,0.0,0.0,62,0.00,,,0.11,fowsr,2013-02-20 11:16:00,
2013-02-20 06:21:00,31.8,24.1,29.60,West,270,0.0,0.0,64,0.00,,,0.11,fowsr,2013-02-20 11:21:00,
2013-02-20 06:26:00,31.5,24.1,29.60,West,270,0.0,0.0,65,0.00,,,0.11,fowsr,2013-02-20 11:26:00,
2013-02-20 06:31:00,31.1,24.0,29.61,West,270,0.0,0.0,66,0.00,,,0.11,fowsr,2013-02-20 11:31:00,
2013-02-20 06:36:00,30.7,23.9,29.60,West,270,0.0,0.0,67,0.00,,,0.11,fowsr,2013-02-20 11:36:00,
2013-02-20 06:41:00,30.4,23.8,29.61,West,270,0.0,0.0,68,0.00,,,0.11,fowsr,2013-02-20 11:41:00,
2013-02-20 06:46:00,30.0,23.9,29.61,West,270,0.0,0.0,70,0.00,,,0.11,fowsr,2013-02-20 11:46:00,
2013-02-20 06:51:00,29.7,23.8,29.61,West,270,0.0,0.0,71,0.00,,,0.11,fowsr,2013-02-20 11:51:00,
2013-02-20 06:56:00,29.3,23.7,29.62,West,270,0.0,0.0,72,0.00,,,0.11,fowsr,2013-02-20 11:56:00,
2013-02-20 07:01:00,29.3,23.7,29.61,West,270,0.0,0.0,72,0.00,,,0.11,fowsr,2013-02-20 12:01:00,
2013-02-20 07:06:00,28.9,23.4,29.61,West,270,0.0,0.0,72,0.00,,,0.11,fowsr,2013-02-20 12:06:00,
2013-02-20 07:11:00,28.8,23.4,29.62,West,270,0.0,0.0,73,0.00,,,0.11,fowsr,2013-02-20 12:11:00,
2013-02-20 07:16:00,28.8,23.4,29.63,West,270,0.0,0.0,73,0.00,,,0.11,fowsr,2013-02-20 12:16:00,
2013-02-20 07:21:00,28.8,23.4,29.62,West,270,0.0,0.0,73,0.00,,,0.11,fowsr,2013-02-20 12:21:00,
2013-02-20 07:26:00,28.8,23.4,29.63,West,270,0.0,0.0,73,0.00,,,0.11,fowsr,2013-02-20 12:26:00,
2013-02-20 07:31:00,28.8,23.7,29.63,SE,135,0.0,0.0,74,0.00,,,0.11,fowsr,2013-02-20 12:31:00,
2013-02-20 07:36:00,28.9,24.0,29.63,SE,135,0.0,0.0,75,0.00,,,0.11,fowsr,2013-02-20 12:36:00,
2013-02-20 07:41:00,29.1,24.2,29.63,SE,135,0.0,0.7,75,0.00,,,0.11,fowsr,2013-02-20 12:41:00,
2013-02-20 07:46:00,29.5,24.8,29.64,SE,135,0.0,0.0,76,0.00,,,0.11,fowsr,2013-02-20 12:46:00,
2013-02-20 07:51:00,29.7,25.2,29.64,SE,135,0.0,0.0,77,0.00,,,0.11,fowsr,2013-02-20 12:51:00,
2013-02-20 07:56:00,29.8,25.4,29.63,SE,135,0.0,0.7,77,0.00,,,0.11,fowsr,2013-02-20 12:56:00,
2013-02-20 08:01:00,30.2,25.5,29.63,SE,135,0.0,0.0,76,0.00,,,0.11,fowsr,2013-02-20 13:01:00,
2013-02-20 08:06:00,30.4,25.4,29.63,SE,135,0.0,0.0,75,0.00,,,0.11,fowsr,2013-02-20 13:06:00,
2013-02-20 08:11:00,30.7,25.8,29.64,SE,135,0.0,0.0,75,0.00,,,0.11,fowsr,2013-02-20 13:11:00,
2013-02-20 08:16:00,30.9,25.7,29.64,SE,135,0.0,0.0,74,0.00,,,0.11,fowsr,2013-02-20 13:16:00,
2013-02-20 08:21:00,31.3,26.1,29.64,SE,135,0.0,0.0,74,0.00,,,0.11,fowsr,2013-02-20 13:21:00,
2013-02-20 08:26:00,31.6,26.4,29.65,SE,135,0.0,0.0,74,0.00,,,0.11,fowsr,2013-02-20 13:26:00,
2013-02-20 08:31:00,32.2,26.5,29.64,South,180,0.0,0.0,72,0.00,,,0.11,fowsr,2013-02-20 13:31:00,
2013-02-20 08:36:00,32.9,26.9,29.65,SE,135,0.0,0.7,71,0.00,,,0.11,fowsr,2013-02-20 13:36:00,
2013-02-20 08:41:00,33.8,27.3,29.65,SE,135,0.0,0.0,69,0.00,,,0.11,fowsr,2013-02-20 13:41:00,
2013-02-20 08:46:00,34.5,27.7,29.65,SE,135,0.0,0.0,68,0.00,,,0.11,fowsr,2013-02-20 13:46:00,
2013-02-20 08:51:00,35.4,27.8,29.65,NW,315,0.0,0.0,65,0.00,,,0.11,fowsr,2013-02-20 13:51:00,
2013-02-20 08:56:00,36.1,28.0,29.65,NW,315,0.0,0.0,63,0.00,,,0.11,fowsr,2013-02-20 13:56:00,
2013-02-20 09:01:00,36.9,28.1,29.65,South,180,0.7,1.6,61,0.00,,,0.11,fowsr,2013-02-20 14:01:00,
2013-02-20 09:06:00,37.6,28.2,29.64,West,270,0.0,0.7,59,0.00,,,0.11,fowsr,2013-02-20 14:06:00,
2013-02-20 09:11:00,38.8,27.5,29.64,SE,135,0.0,0.7,53,0.00,,,0.11,fowsr,2013-02-20 14:11:00,
2013-02-20 09:16:00,39.2,27.2,29.64,West,270,0.7,2.2,51,0.00,,,0.11,fowsr,2013-02-20 14:16:00,
2013-02-20 09:21:00,40.1,26.6,29.65,West,270,0.7,1.6,47,0.00,,,0.11,fowsr,2013-02-20 14:21:00,
2013-02-20 09:26:00,40.6,26.7,29.65,SW,225,0.7,1.6,46,0.00,,,0.11,fowsr,2013-02-20 14:26:00,
2013-02-20 09:31:00,41.4,26.6,29.64,NW,315,0.0,0.7,44,0.00,,,0.11,fowsr,2013-02-20 14:31:00,
2013-02-20 09:36:00,41.7,26.5,29.64,NW,315,1.6,2.2,43,0.00,,,0.11,fowsr,2013-02-20 14:36:00,
2013-02-20 09:41:00,41.9,25.5,29.64,North,0,1.6,2.2,40,0.00,,,0.11,fowsr,2013-02-20 14:41:00,
2013-02-20 09:46:00,42.3,25.8,29.64,West,270,0.0,0.7,40,0.00,,,0.11,fowsr,2013-02-20 14:46:00,
2013-02-20 09:51:00,43.2,24.3,29.64,West,270,1.6,3.1,35,0.00,,,0.11,fowsr,2013-02-20 14:51:00,
2013-02-20 09:56:00,43.7,24.3,29.64,SW,225,0.7,2.2,34,0.00,,,0.11,fowsr,2013-02-20 14:56:00,
2013-02-20 10:01:00,44.2,24.3,29.63,SW,225,0.7,2.2,33,0.00,,,0.11,fowsr,2013-02-20 15:01:00,
2013-02-20 10:06:00,44.8,24.2,29.63,South,180,1.6,3.1,32,0.00,,,0.11,fowsr,2013-02-20 15:06:00,
2013-02-20 10:11:00,45.5,23.8,29.64,SE,135,2.2,3.1,30,0.00,,,0.11,fowsr,2013-02-20 15:11:00,
2013-02-20 10:16:00,45.9,22.9,29.65,NW,315,0.0,1.6,28,0.00,,,0.11,fowsr,2013-02-20 15:16:00,
2013-02-20 10:21:00,46.8,25.9,29.64,NW,315,0.0,0.7,32,0.00,,,0.11,fowsr,2013-02-20 15:21:00,
2013-02-20 10:26:00,47.5,26.6,29.65,South,180,2.2,3.8,32,0.00,,,0.11,fowsr,2013-02-20 15:26:00,
2013-02-20 10:31:00,46.9,22.6,29.65,NW,315,2.2,4.5,26,0.00,,,0.11,fowsr,2013-02-20 15:31:00,
2013-02-20 10:36:00,46.8,21.8,29.65,South,180,0.7,2.2,25,0.00,,,0.11,fowsr,2013-02-20 15:36:00,
2013-02-20 10:41:00,47.3,23.6,29.65,South,180,1.6,2.2,27,0.00,,,0.11,fowsr,2013-02-20 15:41:00,
2013-02-20 10:46:00,47.5,23.1,29.65,SW,225,0.7,2.2,26,0.00,,,0.11,fowsr,2013-02-20 15:46:00,
2013-02-20 10:51:00,47.8,24.0,29.65,NW,315,1.6,3.1,27,0.00,,,0.11,fowsr,2013-02-20 15:51:00,
2013-02-20 10:56:00,48.2,22.4,29.65,SW,225,2.2,3.8,24,0.00,,,0.09,fowsr,2013-02-20 15:56:00,
2013-02-20 11:01:00,48.4,23.2,29.65,West,270,1.6,2.2,25,0.00,,,0.09,fowsr,2013-02-20 16:01:00,
2013-02-20 11:06:00,48.6,22.7,29.65,West,270,2.2,5.4,24,0.00,,,0.09,fowsr,2013-02-20 16:06:00,
2013-02-20 11:11:00,48.9,22.9,29.65,NNE,22,2.2,3.8,24,0.00,,,0.09,fowsr,2013-02-20 16:11:00,
2013-02-20 11:16:00,48.9,22.2,29.64,West,270,2.2,4.5,23,0.00,,,0.09,fowsr,2013-02-20 16:16:00,
2013-02-20 11:21:00,49.3,23.2,29.65,SE,135,0.7,2.2,24,0.00,,,0.09,fowsr,2013-02-20 16:21:00,
2013-02-20 11:26:00,50.2,24.0,29.65,NW,315,1.6,3.1,24,0.00,,,0.09,fowsr,2013-02-20 16:26:00,
2013-02-20 11:31:00,50.2,23.3,29.64,SW,225,0.7,2.2,23,0.00,,,0.09,fowsr,2013-02-20 16:31:00,
2013-02-20 11:36:00,50.4,21.9,29.64,SW,225,1.6,2.2,21,0.00,,,0.09,fowsr,2013-02-20 16:36:00,
2013-02-20 11:41:00,50.5,22.1,29.64,West,270,3.1,3.8,21,0.00,,,0.09,fowsr,2013-02-20 16:41:00,
2013-02-20 11:46:00,50.4,21.9,29.64,West,270,0.7,3.1,21,0.00,,,0.09,fowsr,2013-02-20 16:46:00,
2013-02-20 11:51:00,50.9,22.4,29.63,South,180,0.7,2.2,21,0.00,,,0.08,fowsr,2013-02-20 16:51:00,
2013-02-20 11:56:00,50.9,22.4,29.63,West,270,1.6,3.8,21,0.00,,,0.08,fowsr,2013-02-20 16:56:00,
2013-02-20 12:01:00,50.9,23.1,29.63,South,180,0.0,0.7,22,0.00,,,0.08,fowsr,2013-02-20 17:01:00,
2013-02-20 12:06:00,51.3,23.4,29.63,NW,315,2.2,3.1,22,0.00,,,0.08,fowsr,2013-02-20 17:06:00,
2013-02-20 12:11:00,51.1,22.5,29.63,North,0,0.0,1.6,21,0.00,,,0.08,fowsr,2013-02-20 17:11:00,
2013-02-20 12:16:00,51.8,23.1,29.63,West,270,0.7,2.2,21,0.00,,,0.08,fowsr,2013-02-20 17:16:00,
2013-02-20 12:21:00,52.0,22.4,29.63,West,270,2.2,3.8,20,0.00,,,0.08,fowsr,2013-02-20 17:21:00,
2013-02-20 12:26:00,51.4,22.8,29.62,NW,315,2.2,4.5,21,0.00,,,0.08,fowsr,2013-02-20 17:26:00,
2013-02-20 12:31:00,51.6,23.0,29.62,SW,225,1.6,4.5,21,0.00,,,0.08,fowsr,2013-02-20 17:31:00,
2013-02-20 12:36:00,52.0,23.2,29.62,West,270,1.6,2.2,21,0.00,,,0.08,fowsr,2013-02-20 17:36:00,
2013-02-20 12:41:00,52.7,23.8,29.62,SE,135,0.0,2.2,21,0.00,,,0.08,fowsr,2013-02-20 17:41:00,
2013-02-20 12:46:00,53.2,24.3,29.62,South,180,3.1,6.0,21,0.00,,,0.08,fowsr,2013-02-20 17:46:00,
2013-02-20 12:51:00,52.7,23.0,29.61,SW,225,3.1,6.0,20,0.00,,,0.08,fowsr,2013-02-20 17:51:00,
2013-02-20 12:56:00,53.1,23.3,29.60,South,180,1.6,3.8,20,0.00,,,0.08,fowsr,2013-02-20 17:56:00,
2013-02-20 13:01:00,53.2,23.5,29.60,NW,315,2.2,3.8,20,0.00,,,0.08,fowsr,2013-02-20 18:01:00,
2013-02-20 13:06:00,53.2,22.6,29.59,West,270,3.1,5.4,19,0.00,,,0.08,fowsr,2013-02-20 18:06:00,
2013-02-20 13:11:00,52.7,22.2,29.59,NW,315,1.6,3.8,19,0.00,,,0.08,fowsr,2013-02-20 18:11:00,
2013-02-20 13:16:00,53.2,22.6,29.59,East,90,1.6,3.1,19,0.00,,,0.08,fowsr,2013-02-20 18:16:00,
2013-02-20 13:21:00,53.8,22.1,29.59,North,0,2.2,4.5,18,0.00,,,0.08,fowsr,2013-02-20 18:21:00,
2013-02-20 13:26:00,53.6,22.0,29.59,SW,225,0.7,2.2,18,0.00,,,0.08,fowsr,2013-02-20 18:26:00,
2013-02-20 13:31:00,53.8,22.1,29.59,SW,225,0.7,1.6,18,0.00,,,0.08,fowsr,2013-02-20 18:31:00,
2013-02-20 13:36:00,53.8,22.1,29.59,NW,315,1.6,2.2,18,0.00,,,0.08,fowsr,2013-02-20 18:36:00,
2013-02-20 13:41:00,53.6,22.0,29.59,North,0,1.6,3.8,18,0.00,,,0.08,fowsr,2013-02-20 18:41:00,
2013-02-20 13:46:00,53.8,22.1,29.58,South,180,0.7,2.2,18,0.00,,,0.08,fowsr,2013-02-20 18:46:00,
2013-02-20 13:51:00,54.5,22.7,29.58,West,270,1.6,3.1,18,0.00,,,0.08,fowsr,2013-02-20 18:51:00,
2013-02-20 13:56:00,54.7,22.9,29.58,West,270,0.7,1.6,18,0.00,,,0.08,fowsr,2013-02-20 18:56:00,
2013-02-20 14:01:00,54.9,23.0,29.58,NE,45,2.2,3.8,18,0.00,,,0.08,fowsr,2013-02-20 19:01:00,
2013-02-20 14:06:00,54.9,23.0,29.58,NW,315,1.6,3.1,18,0.00,,,0.07,fowsr,2013-02-20 19:06:00,
2013-02-20 14:11:00,55.2,23.3,29.57,West,270,0.0,1.6,18,0.00,,,0.06,fowsr,2013-02-20 19:11:00,
2013-02-20 14:16:00,55.6,26.2,29.57,West,270,1.6,3.8,21,0.00,,,0.05,fowsr,2013-02-20 19:16:00,
2013-02-20 14:21:00,55.6,25.3,29.57,East,90,3.1,5.4,20,0.00,,,0.04,fowsr,2013-02-20 19:21:00,
2013-02-20 14:26:00,55.4,25.2,29.57,NW,315,2.2,4.5,20,0.00,,,0.02,fowsr,2013-02-20 19:26:00,
2013-02-20 14:31:00,55.8,26.3,29.57,NW,315,0.7,2.2,21,0.00,,,0.01,fowsr,2013-02-20 19:31:00,
2013-02-20 14:36:00,55.4,26.0,29.57,NNW,337,0.7,3.1,21,0.00,,,0.01,fowsr,2013-02-20 19:36:00,
2013-02-20 14:41:00,55.8,26.3,29.57,South,180,0.0,0.7,21,0.00,,,0.01,fowsr,2013-02-20 19:41:00,
2013-02-20 14:46:00,56.8,27.2,29.57,SE,135,0.7,2.2,21,0.00,,,0.01,fowsr,2013-02-20 19:46:00,
2013-02-20 14:51:00,56.8,26.3,29.57,North,0,1.6,3.8,20,0.00,,,0.01,fowsr,2013-02-20 19:51:00,
2013-02-20 14:56:00,56.7,26.2,29.57,SW,225,0.7,1.6,20,0.00,,,0.01,fowsr,2013-02-20 19:56:00,
2013-02-20 15:01:00,56.3,25.9,29.57,NW,315,0.7,2.2,20,0.00,,,0.01,fowsr,2013-02-20 20:01:00,
2013-02-20 15:06:00,56.1,25.8,29.57,East,90,1.6,3.8,20,0.00,,,0.01,fowsr,2013-02-20 20:06:00,
2013-02-20 15:11:00,55.9,25.6,29.56,SW,225,1.6,2.2,20,0.00,,,0.01,fowsr,2013-02-20 20:11:00,
2013-02-20 15:16:00,55.9,25.6,29.56,NW,315,3.1,4.5,20,0.00,,,0.01,fowsr,2013-02-20 20:16:00,
2013-02-20 15:21:00,55.8,25.5,29.57,South,180,2.2,3.8,20,0.00,,,0.00,fowsr,2013-02-20 20:21:00,
2013-02-20 15:26:00,55.8,25.5,29.56,South,180,1.6,4.5,20,0.00,,,0.00,fowsr,2013-02-20 20:26:00,
2013-02-20 15:31:00,55.9,26.5,29.57,SW,225,2.2,4.5,21,0.00,,,0.00,fowsr,2013-02-20 20:31:00,
2013-02-20 15:36:00,55.4,25.2,29.57,SW,225,0.7,1.6,20,0.00,,,0.00,fowsr,2013-02-20 20:36:00,
2013-02-20 15:41:00,55.4,25.2,29.56,NE,45,0.0,0.7,20,0.00,,,0.00,fowsr,2013-02-20 20:41:00,
2013-02-20 15:46:00,55.6,25.3,29.56,NW,315,0.0,0.7,20,0.00,,,0.00,fowsr,2013-02-20 20:46:00,
2013-02-20 15:51:00,55.6,25.3,29.55,West,270,0.7,2.2,20,0.00,,,0.00,fowsr,2013-02-20 20:51:00,
2013-02-20 15:56:00,55.2,23.3,29.56,West,270,1.6,3.8,18,0.00,,,0.00,fowsr,2013-02-20 20:56:00,
2013-02-20 16:01:00,54.9,23.0,29.56,NW,315,1.6,3.1,18,0.00,,,0.00,fowsr,2013-02-20 21:01:00,
2013-02-20 16:06:00,53.8,22.1,29.57,SW,225,0.7,2.2,18,0.00,,,0.00,fowsr,2013-02-20 21:06:00,
2013-02-20 16:11:00,53.4,22.7,29.57,South,180,0.7,1.6,19,0.00,,,0.00,fowsr,2013-02-20 21:11:00,
2013-02-20 16:16:00,53.2,22.6,29.57,West,270,2.2,3.8,19,0.00,,,0.00,fowsr,2013-02-20 21:16:00,
2013-02-20 16:21:00,53.1,22.5,29.57,West,270,0.0,0.7,19,0.00,,,0.00,fowsr,2013-02-20 21:21:00,
2013-02-20 16:26:00,53.1,22.5,29.57,NW,315,0.0,0.7,19,0.00,,,0.00,fowsr,2013-02-20 21:26:00,
2013-02-20 16:31:00,53.2,22.6,29.57,NW,315,0.7,1.6,19,0.00,,,0.00,fowsr,2013-02-20 21:31:00,
2013-02-20 16:36:00,53.1,22.5,29.57,NW,315,2.2,3.1,19,0.00,,,0.00,fowsr,2013-02-20 21:36:00,
2013-02-20 16:41:00,53.1,22.5,29.57,NW,315,0.0,0.0,19,0.00,,,0.00,fowsr,2013-02-20 21:41:00,
2013-02-20 16:46:00,53.2,22.6,29.57,SW,225,0.0,0.7,19,0.00,,,0.00,fowsr,2013-02-20 21:46:00,
2013-02-20 16:51:00,53.2,22.6,29.57,South,180,0.7,1.6,19,0.00,,,0.00,fowsr,2013-02-20 21:51:00,
2013-02-20 16:56:00,53.1,22.5,29.57,South,180,0.0,0.7,19,0.00,,,0.00,fowsr,2013-02-20 21:56:00,
2013-02-20 17:01:00,52.9,22.3,29.57,West,270,0.0,1.6,19,0.00,,,0.00,fowsr,2013-02-20 22:01:00,
2013-02-20 17:06:00,52.9,22.3,29.58,SW,225,0.0,1.6,19,0.00,,,0.00,fowsr,2013-02-20 22:06:00,
2013-02-20 17:11:00,52.7,22.2,29.58,SW,225,0.0,0.7,19,0.00,,,0.00,fowsr,2013-02-20 22:11:00,
2013-02-20 17:16:00,52.5,22.0,29.58,SE,135,0.0,0.7,19,0.00,,,0.00,fowsr,2013-02-20 22:16:00,
2013-02-20 17:21:00,52.3,22.7,29.58,NW,315,0.7,1.6,20,0.00,,,0.00,fowsr,2013-02-20 22:21:00,
2013-02-20 17:26:00,52.0,22.4,29.59,South,180,0.0,0.0,20,0.00,,,0.00,fowsr,2013-02-20 22:26:00,
2013-02-20 17:31:00,51.6,23.0,29.59,NW,315,0.0,0.0,21,0.00,,,0.00,fowsr,2013-02-20 22:31:00,
2013-02-20 17:36:00,51.4,22.8,29.59,East,90,0.0,0.0,21,0.00,,,0.00,fowsr,2013-02-20 22:36:00,
2013-02-20 17:41:00,51.1,23.3,29.59,East,90,0.0,0.0,22,0.00,,,0.00,fowsr,2013-02-20 22:41:00,
2013-02-20 17:46:00,50.9,23.9,29.59,West,270,0.0,0.0,23,0.00,,,0.00,fowsr,2013-02-20 22:46:00,
2013-02-20 17:51:00,50.5,23.6,29.59,West,270,0.0,0.0,23,0.00,,,0.00,fowsr,2013-02-20 22:51:00,
2013-02-20 17:56:00,50.2,24.0,29.60,West,270,0.0,0.0,24,0.00,,,0.00,fowsr,2013-02-20 22:56:00,
2013-02-20 18:01:00,49.8,25.0,29.59,West,270,0.0,0.0,26,0.00,,,0.00,fowsr,2013-02-20 23:01:00,
2013-02-20 18:06:00,49.3,25.2,29.59,SE,135,0.0,0.0,27,0.00,,,0.00,fowsr,2013-02-20 23:06:00,
2013-02-20 18:11:00,48.7,24.8,29.59,SE,135,0.0,0.0,27,0.00,,,0.00,fowsr,2013-02-20 23:11:00,
2013-02-20 18:16:00,48.6,24.6,29.59,SE,135,0.0,0.0,27,0.00,,,0.00,fowsr,2013-02-20 23:16:00,
2013-02-20 18:21:00,47.8,25.2,29.60,SE,135,0.0,0.0,29,0.00,,,0.00,fowsr,2013-02-20 23:21:00,
2013-02-20 18:26:00,47.5,25.5,29.60,SE,135,0.0,0.0,30,0.00,,,0.00,fowsr,2013-02-20 23:26:00,
2013-02-20 18:31:00,46.8,25.4,29.60,SE,135,0.0,0.0,31,0.00,,,0.00,fowsr,2013-02-20 23:31:00,
2013-02-20 18:36:00,46.2,24.4,29.60,SE,135,0.0,0.0,30,0.00,,,0.00,fowsr,2013-02-20 23:36:00,
2013-02-20 18:41:00,45.5,24.9,29.61,SE,135,0.0,0.0,32,0.00,,,0.00,fowsr,2013-02-20 23:41:00,
2013-02-20 18:46:00,45.1,25.6,29.61,SE,135,0.0,0.0,34,0.00,,,0.00,fowsr,2013-02-20 23:46:00,
2013-02-20 18:51:00,44.6,26.5,29.61,SE,135,0.0,0.0,37,0.00,,,0.00,fowsr,2013-02-20 23:51:00,
2013-02-20 18:56:00,44.1,27.0,29.61,SE,135,0.0,0.0,39,0.00,,,0.00,fowsr,2013-02-20 23:56:00,
2013-02-20 19:01:00,43.7,26.6,29.62,SE,135,0.0,0.0,39,0.00,,,0.00,fowsr,2013-02-21 00:01:00,
2013-02-20 19:06:00,43.3,26.8,29.62,SE,135,0.0,0.0,40,0.00,,,0.00,fowsr,2013-02-21 00:06:00,
2013-02-20 19:11:00,43.0,26.4,29.62,SE,135,0.0,0.0,40,0.00,,,0.00,fowsr,2013-02-21 00:11:00,
2013-02-20 19:16:00,42.6,26.9,29.62,SE,135,0.0,0.0,42,0.00,,,0.00,fowsr,2013-02-21 00:16:00,
2013-02-20 19:21:00,42.3,26.6,29.62,SE,135,0.0,0.0,42,0.00,,,0.00,fowsr,2013-02-21 00:21:00,
2013-02-20 19:26:00,41.9,26.7,29.63,SE,135,0.0,0.0,43,0.00,,,0.00,fowsr,2013-02-21 00:26:00,
2013-02-20 19:31:00,41.5,26.8,29.62,SE,135,0.0,0.0,44,0.00,,,0.00,fowsr,2013-02-21 00:31:00,
2013-02-20 19:36:00,41.2,26.8,29.62,SE,135,0.0,0.0,45,0.00,,,0.00,fowsr,2013-02-21 00:36:00,
2013-02-20 19:41:00,40.8,26.9,29.62,SE,135,0.0,0.0,46,0.00,,,0.00,fowsr,2013-02-21 00:41:00,
2013-02-20 19:46:00,40.5,26.9,29.63,SE,135,0.0,0.0,47,0.00,,,0.00,fowsr,2013-02-21 00:46:00,
2013-02-20 19:51:00,40.1,27.3,29.62,SE,135,0.0,0.0,49,0.00,,,0.00,fowsr,2013-02-21 00:51:00,
2013-02-20 19:56:00,39.9,27.1,29.63,SE,135,0.0,0.0,49,0.00,,,0.00,fowsr,2013-02-21 00:56:00,
2013-02-20 20:01:00,39.6,26.8,29.63,SE,135,0.0,0.0,49,0.00,,,0.00,fowsr,2013-02-21 01:01:00,
2013-02-20 20:06:00,39.4,27.0,29.63,SE,135,0.0,0.0,50,0.00,,,0.00,fowsr,2013-02-21 01:06:00,
2013-02-20 20:11:00,38.8,27.2,29.64,SE,135,0.0,0.7,52,0.00,,,0.00,fowsr,2013-02-21 01:11:00,
2013-02-20 20:16:00,38.7,27.0,29.64,SE,135,0.0,0.0,52,0.00,,,0.00,fowsr,2013-02-21 01:16:00,
2013-02-20 20:21:00,38.3,26.3,29.64,SE,135,0.0,0.0,51,0.00,,,0.00,fowsr,2013-02-21 01:21:00,
2013-02-20 20:26:00,38.1,26.2,29.64,SE,135,0.0,0.0,51,0.00,,,0.00,fowsr,2013-02-21 01:26:00,
2013-02-20 20:31:00,37.9,26.3,29.65,SE,135,0.0,0.0,52,0.00,,,0.00,fowsr,2013-02-21 01:31:00,
2013-02-20 20:36:00,37.9,26.3,29.64,SE,135,0.0,0.0,52,0.00,,,0.00,fowsr,2013-02-21 01:36:00,
2013-02-20 20:41:00,37.6,26.0,29.65,SE,135,0.0,0.0,52,0.00,,,0.00,fowsr,2013-02-21 01:41:00,
2013-02-20 20:46:00,37.4,26.2,29.65,SE,135,0.0,0.7,53,0.00,,,0.00,fowsr,2013-02-21 01:46:00,
2013-02-20 20:51:00,37.2,25.4,29.65,SE,135,0.0,0.0,51,0.00,,,0.00,fowsr,2013-02-21 01:51:00,
2013-02-20 20:56:00,36.9,25.4,29.66,SE,135,0.0,0.0,52,0.00,,,0.00,fowsr,2013-02-21 01:56:00,
2013-02-20 21:01:00,36.7,25.2,29.65,NW,315,0.0,0.0,52,0.00,,,0.00,fowsr,2013-02-21 02:01:00,
2013-02-20 21:06:00,36.7,25.2,29.66,NW,315,0.0,0.0,52,0.00,,,0.00,fowsr,2013-02-21 02:06:00,
2013-02-20 21:11:00,35.8,24.7,29.66,NW,315,0.0,0.0,53,0.00,,,0.00,fowsr,2013-02-21 02:11:00,
2013-02-20 21:16:00,35.6,24.8,29.66,NW,315,0.0,0.7,54,0.00,,,0.00,fowsr,2013-02-21 02:16:00,
2013-02-20 21:26:00,35.1,25.2,29.67,NW,315,0.0,0.0,57,0.00,,,0.00,fowsr,2013-02-21 02:26:00,
2013-02-20 21:31:00,34.9,25.4,29.67,NW,315,0.0,0.0,58,0.00,,,0.00,fowsr,2013-02-21 02:31:00,
2013-02-20 21:36:00,34.7,25.5,29.68,NW,315,0.0,0.0,59,0.00,,,0.00,fowsr,2013-02-21 02:36:00,
2013-02-20 21:41:00,34.5,25.3,29.69,NW,315,0.0,0.0,59,0.00,,,0.00,fowsr,2013-02-21 02:41:00,
2013-02-20 21:46:00,34.3,25.1,29.68,NW,315,0.0,0.0,59,0.00,,,0.00,fowsr,2013-02-21 02:46:00,
2013-02-20 21:51:00,34.2,25.0,29.68,NW,315,0.0,0.0,59,0.00,,,0.00,fowsr,2013-02-21 02:51:00,
2013-02-20 21:56:00,34.0,24.8,29.68,NW,315,0.0,0.0,59,0.00,,,0.00,fowsr,2013-02-21 02:56:00,
2013-02-20 22:01:00,33.8,24.6,29.68,NW,315,0.0,0.0,59,0.00,,,0.00,fowsr,2013-02-21 03:01:00,
2013-02-20 22:06:00,33.8,24.6,29.68,NW,315,0.0,1.6,59,0.00,,,0.00,fowsr,2013-02-21 03:06:00,
2013-02-20 22:11:00,34.3,24.0,29.69,South,180,0.0,0.7,55,0.00,,,0.00,fowsr,2013-02-21 03:11:00,
2013-02-20 22:16:00,34.9,23.5,29.69,East,90,0.0,0.7,52,0.00,,,0.00,fowsr,2013-02-21 03:16:00,
2013-02-20 22:21:00,35.8,23.0,29.69,North,0,0.0,0.7,48,0.00,,,0.00,fowsr,2013-02-21 03:21:00,
2013-02-20 22:26:00,36.3,22.5,29.68,North,0,0.0,0.0,45,0.00,,,0.00,fowsr,2013-02-21 03:26:00,
2013-02-20 22:31:00,36.9,22.2,29.68,SW,225,0.0,0.7,43,0.00,,,0.00,fowsr,2013-02-21 03:31:00,
2013-02-20 22:36:00,37.2,21.3,29.68,West,270,0.0,0.7,40,0.00,,,0.00,fowsr,2013-02-21 03:36:00,
2013-02-20 22:41:00,37.6,22.8,29.68,East,90,0.0,0.0,43,0.00,,,0.00,fowsr,2013-02-21 03:41:00,
2013-02-20 22:51:00,37.9,22.8,29.68,West,270,0.0,0.7,42,0.00,,,0.00,fowsr,2013-02-21 03:51:00,
2013-02-20 22:56:00,37.8,22.6,29.68,NW,315,0.0,0.0,42,0.00,,,0.00,fowsr,2013-02-21 03:56:00,
2013-02-20 23:01:00,37.6,22.4,29.68,NE,45,0.0,0.0,42,0.00,,,0.00,fowsr,2013-02-21 04:01:00,
2013-02-20 23:06:00,37.6,22.4,29.68,NE,45,0.0,0.0,42,0.00,,,0.00,fowsr,2013-02-21 04:06:00,
2013-02-20 23:11:00,37.0,20.3,29.68,SE,135,0.0,0.0,38,0.00,,,0.00,fowsr,2013-02-21 04:11:00,
2013-02-20 23:16:00,36.9,20.2,29.68,SW,225,0.0,0.0,38,0.00,,,0.00,fowsr,2013-02-21 04:16:00,
2013-02-20 23:21:00,36.7,20.0,29.68,SW,225,0.0,0.7,38,0.00,,,0.00,fowsr,2013-02-21 04:21:00,
2013-02-20 23:26:00,36.7,20.0,29.68,SW,225,0.0,1.6,38,0.00,,,0.00,fowsr,2013-02-21 04:26:00,
2013-02-20 23:31:00,36.7,20.0,29.68,NW,315,0.0,0.0,38,0.00,,,0.00,fowsr,2013-02-21 04:31:00,
2013-02-20 23:36:00,36.7,20.0,29.68,SW,225,0.0,0.0,38,0.00,,,0.00,fowsr,2013-02-21 04:36:00,
2013-02-20 23:41:00,36.7,20.0,29.67,SW,225,0.0,0.0,38,0.00,,,0.00,fowsr,2013-02-21 04:41:00,
2013-02-20 23:46:00,36.5,19.9,29.68,SW,225,0.0,1.6,38,0.00,,,0.00,fowsr,2013-02-21 04:46:00,
2013-02-20 23:51:00,36.7,20.0,29.68,NW,315,0.0,0.0,38,0.00,,,0.00,fowsr,2013-02-21 04:51:00,
2013-02-20 23:56:00,36.5,19.9,29.68,NE,45,0.0,0.0,38,0.00,,,0.00,fowsr,2013-02-21 04:56:00,